sensor_id;sensor_type;location;lat;lon;timestamp;temperature;humidity
52879;DHT22;38747;53.140;6.498;2023-03-23T00:01:12;10.20;99.90
52879;DHT22;38747;53.140;6.498;2023-03-23T00:03:39;10.20;99.90
52879;DHT22;38747;53.140;6.498;2023-03-23T00:06:05;10.30;99.90
52879;DHT22;38747;53.140;6.498;2023-03-23T00:08:38;10.30;99.90
52879;DHT22;38747;53.140;6.498;2023-03-23T00:11:11;10.40;99.90
52879;DHT22;38747;53.140;6.498;2023-03-23T00:13:41;10.50;99.90
52879;DHT22;38747;53.140;6.498;2023-03-23T00:16:07;10.50;99.90
52879;DHT22;38747;53.140;6.498;2023-03-23T00:18:47;10.60;99.90
52879;DHT22;38747;53.140;6.498;2023-03-23T00:21:13;10.60;99.90
52879;DHT22;38747;53.140;6.498;2023-03-23T00:23:39;10.60;99.90
52879;DHT22;38747;53.140;6.498;2023-03-23T00:26:05;10.60;99.90
52879;DHT22;38747;53.140;6.498;2023-03-23T00:28:31;10.60;99.90
52879;DHT22;38747;53.140;6.498;2023-03-23T00:30:59;10.60;99.90
52879;DHT22;38747;53.140;6.498;2023-03-23T00:33:26;10.70;99.90
52879;DHT22;38747;53.140;6.498;2023-03-23T00:35:53;10.60;99.90
52879;DHT22;38747;53.140;6.498;2023-03-23T00:38:21;10.60;99.90
52879;DHT22;38747;53.140;6.498;2023-03-23T00:40:46;10.60;99.90
52879;DHT22;38747;53.140;6.498;2023-03-23T00:43:14;10.60;99.90
52879;DHT22;38747;53.140;6.498;2023-03-23T00:45:42;10.60;99.90
52879;DHT22;38747;53.140;6.498;2023-03-23T00:48:11;10.70;99.90
52879;DHT22;38747;53.140;6.498;2023-03-23T00:50:39;10.70;99.90
52879;DHT22;38747;53.140;6.498;2023-03-23T00:53:06;10.70;99.90
52879;DHT22;38747;53.140;6.498;2023-03-23T00:55:32;10.60;99.90
52879;DHT22;38747;53.140;6.498;2023-03-23T00:57:59;10.60;99.90
52879;DHT22;38747;53.140;6.498;2023-03-23T01:00:28;10.60;99.90
52879;DHT22;38747;53.140;6.498;2023-03-23T01:02:54;10.50;99.90
52879;DHT22;38747;53.140;6.498;2023-03-23T01:05:20;10.50;99.90
52879;DHT22;38747;53.140;6.498;2023-03-23T01:07:46;10.50;99.90
52879;DHT22;38747;53.140;6.498;2023-03-23T01:10:14;10.40;99.90
52879;DHT22;38747;53.140;6.498;2023-03-23T01:12:46;10.40;99.90
52879;DHT22;38747;53.140;6.498;2023-03-23T01:15:15;10.40;99.90
52879;DHT22;38747;53.140;6.498;2023-03-23T01:17:42;10.30;99.90
52879;DHT22;38747;53.140;6.498;2023-03-23T01:20:08;10.30;99.90
52879;DHT22;38747;53.140;6.498;2023-03-23T01:22:35;10.30;99.90
52879;DHT22;38747;53.140;6.498;2023-03-23T01:25:01;10.20;99.90
52879;DHT22;38747;53.140;6.498;2023-03-23T01:27:26;10.20;99.90
52879;DHT22;38747;53.140;6.498;2023-03-23T01:29:52;10.20;99.90
52879;DHT22;38747;53.140;6.498;2023-03-23T01:32:18;10.20;99.90
52879;DHT22;38747;53.140;6.498;2023-03-23T01:34:43;10.20;99.90
52879;DHT22;38747;53.140;6.498;2023-03-23T01:37:09;10.20;99.90
52879;DHT22;38747;53.140;6.498;2023-03-23T01:39:38;10.20;99.90
52879;DHT22;38747;53.140;6.498;2023-03-23T01:42:04;10.20;99.90
52879;DHT22;38747;53.140;6.498;2023-03-23T01:46:55;10.40;99.90
52879;DHT22;38747;53.140;6.498;2023-03-23T01:49:31;10.30;99.90
52879;DHT22;38747;53.140;6.498;2023-03-23T01:52:01;10.30;99.90
52879;DHT22;38747;53.140;6.498;2023-03-23T01:54:28;10.30;99.90
52879;DHT22;38747;53.140;6.498;2023-03-23T01:57:10;10.30;99.90
52879;DHT22;38747;53.140;6.498;2023-03-23T01:59:36;10.40;99.90
52879;DHT22;38747;53.140;6.498;2023-03-23T02:02:02;10.40;99.90
52879;DHT22;38747;53.140;6.498;2023-03-23T02:04:30;10.40;99.90
52879;DHT22;38747;53.140;6.498;2023-03-23T02:06:56;10.40;99.90
52879;DHT22;38747;53.140;6.498;2023-03-23T02:09:24;10.40;99.90
52879;DHT22;38747;53.140;6.498;2023-03-23T02:11:51;10.40;99.90
52879;DHT22;38747;53.140;6.498;2023-03-23T02:14:19;10.40;99.90
52879;DHT22;38747;53.140;6.498;2023-03-23T02:16:59;10.50;99.90
52879;DHT22;38747;53.140;6.498;2023-03-23T02:28:39;10.50;99.90
52879;DHT22;38747;53.140;6.498;2023-03-23T02:34:20;10.50;99.90
52879;DHT22;38747;53.140;6.498;2023-03-23T02:39:48;10.50;99.90
52879;DHT22;38747;53.140;6.498;2023-03-23T02:42:20;10.50;99.90
52879;DHT22;38747;53.140;6.498;2023-03-23T02:44:48;10.50;99.90
52879;DHT22;38747;53.140;6.498;2023-03-23T02:47:18;10.50;99.90
52879;DHT22;38747;53.140;6.498;2023-03-23T02:49:49;10.50;99.90
52879;DHT22;38747;53.140;6.498;2023-03-23T02:52:22;10.50;99.90
52879;DHT22;38747;53.140;6.498;2023-03-23T02:54:51;10.50;99.90
52879;DHT22;38747;53.140;6.498;2023-03-23T02:57:17;10.60;99.90
52879;DHT22;38747;53.140;6.498;2023-03-23T02:59:42;10.50;99.90
52879;DHT22;38747;53.140;6.498;2023-03-23T03:02:17;10.60;99.90
52879;DHT22;38747;53.140;6.498;2023-03-23T03:04:55;10.60;99.90
52879;DHT22;38747;53.140;6.498;2023-03-23T03:07:30;10.60;99.90
52879;DHT22;38747;53.140;6.498;2023-03-23T03:10:06;10.60;99.90
52879;DHT22;38747;53.140;6.498;2023-03-23T03:17:59;10.60;99.90
52879;DHT22;38747;53.140;6.498;2023-03-23T03:20:27;10.60;99.90
52879;DHT22;38747;53.140;6.498;2023-03-23T03:22:56;10.50;99.90
52879;DHT22;38747;53.140;6.498;2023-03-23T03:25:23;10.50;99.90
52879;DHT22;38747;53.140;6.498;2023-03-23T03:27:51;10.50;99.90
52879;DHT22;38747;53.140;6.498;2023-03-23T03:30:21;10.60;99.90
52879;DHT22;38747;53.140;6.498;2023-03-23T03:32:51;10.60;99.90
52879;DHT22;38747;53.140;6.498;2023-03-23T03:35:20;10.60;99.90
52879;DHT22;38747;53.140;6.498;2023-03-23T03:37:47;10.60;99.90
52879;DHT22;38747;53.140;6.498;2023-03-23T03:40:16;10.60;99.90
52879;DHT22;38747;53.140;6.498;2023-03-23T03:42:43;10.70;99.90
52879;DHT22;38747;53.140;6.498;2023-03-23T03:45:11;10.60;99.90
52879;DHT22;38747;53.140;6.498;2023-03-23T03:47:37;10.60;99.90
52879;DHT22;38747;53.140;6.498;2023-03-23T03:50:03;10.50;99.90
52879;DHT22;38747;53.140;6.498;2023-03-23T03:52:29;10.60;99.90
52879;DHT22;38747;53.140;6.498;2023-03-23T03:54:55;10.60;99.90
52879;DHT22;38747;53.140;6.498;2023-03-23T03:57:21;10.50;99.90
52879;DHT22;38747;53.140;6.498;2023-03-23T03:59:47;10.50;99.90
52879;DHT22;38747;53.140;6.498;2023-03-23T04:02:13;10.50;99.90
52879;DHT22;38747;53.140;6.498;2023-03-23T04:04:42;10.40;99.90
52879;DHT22;38747;53.140;6.498;2023-03-23T04:07:08;10.40;99.90
52879;DHT22;38747;53.140;6.498;2023-03-23T04:09:36;10.40;99.90
52879;DHT22;38747;53.140;6.498;2023-03-23T04:12:02;10.30;99.90
52879;DHT22;38747;53.140;6.498;2023-03-23T04:14:28;10.20;99.90
52879;DHT22;38747;53.140;6.498;2023-03-23T04:16:54;10.20;99.90
52879;DHT22;38747;53.140;6.498;2023-03-23T04:19:22;10.10;99.90
52879;DHT22;38747;53.140;6.498;2023-03-23T04:21:48;9.80;99.90
52879;DHT22;38747;53.140;6.498;2023-03-23T04:24:15;9.80;99.90
52879;DHT22;38747;53.140;6.498;2023-03-23T04:26:40;9.60;99.90
52879;DHT22;38747;53.140;6.498;2023-03-23T04:29:08;9.60;99.90
52879;DHT22;38747;53.140;6.498;2023-03-23T04:31:34;9.60;99.90
52879;DHT22;38747;53.140;6.498;2023-03-23T04:34:00;9.50;99.90
52879;DHT22;38747;53.140;6.498;2023-03-23T04:36:27;9.50;99.90
52879;DHT22;38747;53.140;6.498;2023-03-23T04:38:55;9.50;99.90
52879;DHT22;38747;53.140;6.498;2023-03-23T04:41:21;9.60;99.90
52879;DHT22;38747;53.140;6.498;2023-03-23T04:43:48;9.70;99.90
52879;DHT22;38747;53.140;6.498;2023-03-23T04:46:18;9.80;99.90
52879;DHT22;38747;53.140;6.498;2023-03-23T04:48:45;9.70;99.90
52879;DHT22;38747;53.140;6.498;2023-03-23T04:51:11;9.80;99.90
52879;DHT22;38747;53.140;6.498;2023-03-23T04:53:38;9.70;99.90
52879;DHT22;38747;53.140;6.498;2023-03-23T04:56:04;9.70;99.90
52879;DHT22;38747;53.140;6.498;2023-03-23T04:58:29;9.80;99.90
52879;DHT22;38747;53.140;6.498;2023-03-23T05:00:59;9.80;99.90
52879;DHT22;38747;53.140;6.498;2023-03-23T05:03:25;9.80;99.90
52879;DHT22;38747;53.140;6.498;2023-03-23T05:05:53;9.80;99.90
52879;DHT22;38747;53.140;6.498;2023-03-23T05:08:27;9.80;99.90
52879;DHT22;38747;53.140;6.498;2023-03-23T05:10:55;9.80;99.90
52879;DHT22;38747;53.140;6.498;2023-03-23T05:13:22;9.80;99.90
52879;DHT22;38747;53.140;6.498;2023-03-23T05:15:48;9.90;99.90
52879;DHT22;38747;53.140;6.498;2023-03-23T05:18:14;9.90;99.90
52879;DHT22;38747;53.140;6.498;2023-03-23T05:20:40;9.90;99.90
52879;DHT22;38747;53.140;6.498;2023-03-23T05:23:08;9.90;99.90
52879;DHT22;38747;53.140;6.498;2023-03-23T05:25:34;9.90;99.90
52879;DHT22;38747;53.140;6.498;2023-03-23T05:28:03;10.00;99.90
52879;DHT22;38747;53.140;6.498;2023-03-23T05:30:29;9.90;99.90
52879;DHT22;38747;53.140;6.498;2023-03-23T05:32:55;10.00;99.90
52879;DHT22;38747;53.140;6.498;2023-03-23T05:35:20;10.00;99.90
52879;DHT22;38747;53.140;6.498;2023-03-23T05:37:46;10.00;99.90
52879;DHT22;38747;53.140;6.498;2023-03-23T05:40:12;10.00;99.90
52879;DHT22;38747;53.140;6.498;2023-03-23T05:42:40;10.00;99.90
52879;DHT22;38747;53.140;6.498;2023-03-23T05:45:08;10.00;99.90
52879;DHT22;38747;53.140;6.498;2023-03-23T05:47:35;10.00;99.90
52879;DHT22;38747;53.140;6.498;2023-03-23T05:50:00;10.00;99.90
52879;DHT22;38747;53.140;6.498;2023-03-23T05:52:27;9.90;99.90
52879;DHT22;38747;53.140;6.498;2023-03-23T05:54:52;9.90;99.90
52879;DHT22;38747;53.140;6.498;2023-03-23T05:57:18;9.90;99.90
52879;DHT22;38747;53.140;6.498;2023-03-23T05:59:47;9.90;99.90
52879;DHT22;38747;53.140;6.498;2023-03-23T06:02:13;9.90;99.90
52879;DHT22;38747;53.140;6.498;2023-03-23T06:04:41;10.00;99.90
52879;DHT22;38747;53.140;6.498;2023-03-23T06:07:08;9.90;99.90
52879;DHT22;38747;53.140;6.498;2023-03-23T06:09:38;10.00;99.90
52879;DHT22;38747;53.140;6.498;2023-03-23T06:12:04;10.00;99.90
52879;DHT22;38747;53.140;6.498;2023-03-23T06:14:30;10.10;99.90
52879;DHT22;38747;53.140;6.498;2023-03-23T06:16:57;10.10;99.90
52879;DHT22;38747;53.140;6.498;2023-03-23T06:19:22;10.10;99.90
52879;DHT22;38747;53.140;6.498;2023-03-23T06:21:48;10.10;99.90
52879;DHT22;38747;53.140;6.498;2023-03-23T06:24:14;10.10;99.90
52879;DHT22;38747;53.140;6.498;2023-03-23T06:26:40;10.20;99.90
52879;DHT22;38747;53.140;6.498;2023-03-23T06:29:09;10.20;99.90
52879;DHT22;38747;53.140;6.498;2023-03-23T06:31:40;10.20;99.90
52879;DHT22;38747;53.140;6.498;2023-03-23T06:34:07;10.20;99.90
52879;DHT22;38747;53.140;6.498;2023-03-23T06:36:34;10.20;99.90
52879;DHT22;38747;53.140;6.498;2023-03-23T06:39:00;10.20;99.90
52879;DHT22;38747;53.140;6.498;2023-03-23T06:41:26;10.20;99.90
52879;DHT22;38747;53.140;6.498;2023-03-23T06:43:52;10.20;99.90
52879;DHT22;38747;53.140;6.498;2023-03-23T06:46:18;10.30;99.90
52879;DHT22;38747;53.140;6.498;2023-03-23T06:48:43;10.20;99.90
52879;DHT22;38747;53.140;6.498;2023-03-23T06:51:09;10.20;99.90
52879;DHT22;38747;53.140;6.498;2023-03-23T06:53:35;10.20;99.90
52879;DHT22;38747;53.140;6.498;2023-03-23T06:56:01;10.10;99.90
52879;DHT22;38747;53.140;6.498;2023-03-23T06:58:27;10.00;99.90
52879;DHT22;38747;53.140;6.498;2023-03-23T07:00:56;9.90;99.90
52879;DHT22;38747;53.140;6.498;2023-03-23T07:03:23;9.90;99.90
52879;DHT22;38747;53.140;6.498;2023-03-23T07:05:49;9.80;99.90
52879;DHT22;38747;53.140;6.498;2023-03-23T07:08:15;9.80;99.90
52879;DHT22;38747;53.140;6.498;2023-03-23T07:10:41;9.80;99.90
52879;DHT22;38747;53.140;6.498;2023-03-23T07:13:07;9.80;99.90
52879;DHT22;38747;53.140;6.498;2023-03-23T07:15:33;9.80;99.90
52879;DHT22;38747;53.140;6.498;2023-03-23T07:17:58;9.90;99.90
52879;DHT22;38747;53.140;6.498;2023-03-23T07:20:24;10.00;99.90
52879;DHT22;38747;53.140;6.498;2023-03-23T07:22:50;10.10;99.90
52879;DHT22;38747;53.140;6.498;2023-03-23T07:25:17;10.20;99.90
52879;DHT22;38747;53.140;6.498;2023-03-23T07:27:44;10.30;99.90
52879;DHT22;38747;53.140;6.498;2023-03-23T07:30:11;10.40;99.90
52879;DHT22;38747;53.140;6.498;2023-03-23T07:32:37;10.50;99.90
52879;DHT22;38747;53.140;6.498;2023-03-23T07:35:03;10.50;99.90
52879;DHT22;38747;53.140;6.498;2023-03-23T07:37:29;10.60;99.90
52879;DHT22;38747;53.140;6.498;2023-03-23T07:39:55;10.70;99.90
52879;DHT22;38747;53.140;6.498;2023-03-23T07:42:21;10.70;99.90
52879;DHT22;38747;53.140;6.498;2023-03-23T07:44:46;10.80;99.90
52879;DHT22;38747;53.140;6.498;2023-03-23T07:47:12;10.80;99.90
52879;DHT22;38747;53.140;6.498;2023-03-23T07:49:38;10.80;99.90
52879;DHT22;38747;53.140;6.498;2023-03-23T07:52:04;10.90;99.90
52879;DHT22;38747;53.140;6.498;2023-03-23T07:54:30;10.80;99.90
52879;DHT22;38747;53.140;6.498;2023-03-23T07:56:56;10.80;99.90
52879;DHT22;38747;53.140;6.498;2023-03-23T07:59:22;10.90;99.90
52879;DHT22;38747;53.140;6.498;2023-03-23T08:01:47;10.80;99.90
52879;DHT22;38747;53.140;6.498;2023-03-23T08:04:13;10.80;99.90
52879;DHT22;38747;53.140;6.498;2023-03-23T08:06:40;10.80;99.90
52879;DHT22;38747;53.140;6.498;2023-03-23T08:09:07;10.80;99.90
52879;DHT22;38747;53.140;6.498;2023-03-23T08:11:37;10.80;99.90
52879;DHT22;38747;53.140;6.498;2023-03-23T08:14:03;10.80;99.90
52879;DHT22;38747;53.140;6.498;2023-03-23T08:16:29;10.80;99.90
52879;DHT22;38747;53.140;6.498;2023-03-23T08:18:55;10.80;99.90
52879;DHT22;38747;53.140;6.498;2023-03-23T08:21:22;10.80;99.90
52879;DHT22;38747;53.140;6.498;2023-03-23T08:23:48;10.80;99.90
52879;DHT22;38747;53.140;6.498;2023-03-23T08:26:14;10.90;99.90
52879;DHT22;38747;53.140;6.498;2023-03-23T08:28:40;10.90;99.90
52879;DHT22;38747;53.140;6.498;2023-03-23T08:31:11;10.90;99.90
52879;DHT22;38747;53.140;6.498;2023-03-23T08:33:38;11.00;99.90
52879;DHT22;38747;53.140;6.498;2023-03-23T08:36:04;11.00;99.90
52879;DHT22;38747;53.140;6.498;2023-03-23T08:38:30;10.90;99.90
52879;DHT22;38747;53.140;6.498;2023-03-23T08:41:00;10.90;99.90
52879;DHT22;38747;53.140;6.498;2023-03-23T08:43:27;10.90;99.90
52879;DHT22;38747;53.140;6.498;2023-03-23T08:45:53;11.00;99.90
52879;DHT22;38747;53.140;6.498;2023-03-23T08:48:20;10.90;99.90
52879;DHT22;38747;53.140;6.498;2023-03-23T08:50:46;11.00;99.90
52879;DHT22;38747;53.140;6.498;2023-03-23T08:53:11;11.00;99.90
52879;DHT22;38747;53.140;6.498;2023-03-23T08:55:37;11.10;99.90
52879;DHT22;38747;53.140;6.498;2023-03-23T08:58:03;11.20;99.90
52879;DHT22;38747;53.140;6.498;2023-03-23T09:00:30;11.30;99.90
52879;DHT22;38747;53.140;6.498;2023-03-23T09:02:56;11.40;99.90
52879;DHT22;38747;53.140;6.498;2023-03-23T09:05:24;11.50;99.90
52879;DHT22;38747;53.140;6.498;2023-03-23T09:07:52;11.40;99.90
52879;DHT22;38747;53.140;6.498;2023-03-23T09:10:19;11.50;99.90
52879;DHT22;38747;53.140;6.498;2023-03-23T09:12:46;11.50;99.90
52879;DHT22;38747;53.140;6.498;2023-03-23T09:15:14;11.50;99.90
52879;DHT22;38747;53.140;6.498;2023-03-23T09:17:43;11.70;99.90
52879;DHT22;38747;53.140;6.498;2023-03-23T09:20:11;11.70;99.90
52879;DHT22;38747;53.140;6.498;2023-03-23T09:22:45;11.80;99.90
52879;DHT22;38747;53.140;6.498;2023-03-23T09:25:13;11.80;99.90
52879;DHT22;38747;53.140;6.498;2023-03-23T09:27:41;11.90;99.90
52879;DHT22;38747;53.140;6.498;2023-03-23T09:30:10;11.90;99.90
52879;DHT22;38747;53.140;6.498;2023-03-23T09:32:37;11.90;99.90
52879;DHT22;38747;53.140;6.498;2023-03-23T09:35:05;11.80;99.90
52879;DHT22;38747;53.140;6.498;2023-03-23T09:37:33;11.80;99.90
52879;DHT22;38747;53.140;6.498;2023-03-23T09:40:02;11.80;99.90
52879;DHT22;38747;53.140;6.498;2023-03-23T09:50:31;12.30;99.90
52879;DHT22;38747;53.140;6.498;2023-03-23T09:55:35;12.60;99.90
52879;DHT22;38747;53.140;6.498;2023-03-23T10:00:48;12.60;99.90
52879;DHT22;38747;53.140;6.498;2023-03-23T10:03:17;12.70;99.90
52879;DHT22;38747;53.140;6.498;2023-03-23T10:05:49;12.70;99.90
52879;DHT22;38747;53.140;6.498;2023-03-23T10:08:22;12.80;99.90
52879;DHT22;38747;53.140;6.498;2023-03-23T10:16:07;13.10;99.90
52879;DHT22;38747;53.140;6.498;2023-03-23T10:18:41;13.20;99.90
52879;DHT22;38747;53.140;6.498;2023-03-23T10:21:14;13.30;99.90
52879;DHT22;38747;53.140;6.498;2023-03-23T10:28:55;13.60;99.90
52879;DHT22;38747;53.140;6.498;2023-03-23T10:31:27;13.70;99.90
52879;DHT22;38747;53.140;6.498;2023-03-23T10:33:57;13.70;99.90
52879;DHT22;38747;53.140;6.498;2023-03-23T10:36:40;13.70;99.90
52879;DHT22;38747;53.140;6.498;2023-03-23T10:39:11;13.60;99.90
52879;DHT22;38747;53.140;6.498;2023-03-23T10:41:38;13.50;99.90
52879;DHT22;38747;53.140;6.498;2023-03-23T10:44:18;13.30;99.90
52879;DHT22;38747;53.140;6.498;2023-03-23T10:47:03;13.10;99.90
52879;DHT22;38747;53.140;6.498;2023-03-23T10:49:40;12.90;99.90
52879;DHT22;38747;53.140;6.498;2023-03-23T10:52:18;12.80;99.90
52879;DHT22;38747;53.140;6.498;2023-03-23T10:55:00;12.80;99.90
52879;DHT22;38747;53.140;6.498;2023-03-23T10:57:29;12.90;99.90
52879;DHT22;38747;53.140;6.498;2023-03-23T11:00:06;13.10;99.90
52879;DHT22;38747;53.140;6.498;2023-03-23T11:02:43;13.20;99.90
52879;DHT22;38747;53.140;6.498;2023-03-23T11:05:21;13.30;99.90
52879;DHT22;38747;53.140;6.498;2023-03-23T11:07:53;13.40;99.90
52879;DHT22;38747;53.140;6.498;2023-03-23T11:10:23;13.20;99.90
52879;DHT22;38747;53.140;6.498;2023-03-23T11:12:49;13.10;99.90
52879;DHT22;38747;53.140;6.498;2023-03-23T11:18:02;12.90;99.90
52879;DHT22;38747;53.140;6.498;2023-03-23T11:20:32;12.90;99.90
52879;DHT22;38747;53.140;6.498;2023-03-23T11:23:07;12.80;99.90
52879;DHT22;38747;53.140;6.498;2023-03-23T11:25:33;12.80;99.90
52879;DHT22;38747;53.140;6.498;2023-03-23T11:28:01;12.70;99.90
52879;DHT22;38747;53.140;6.498;2023-03-23T11:30:29;12.70;99.90
52879;DHT22;38747;53.140;6.498;2023-03-23T11:32:59;12.90;99.90
52879;DHT22;38747;53.140;6.498;2023-03-23T11:35:28;13.20;99.90
52879;DHT22;38747;53.140;6.498;2023-03-23T11:37:58;13.40;99.90
52879;DHT22;38747;53.140;6.498;2023-03-23T11:40:30;13.70;99.90
52879;DHT22;38747;53.140;6.498;2023-03-23T11:43:07;13.80;99.90
52879;DHT22;38747;53.140;6.498;2023-03-23T11:45:37;13.80;99.90
52879;DHT22;38747;53.140;6.498;2023-03-23T11:51:19;14.10;99.90
52879;DHT22;38747;53.140;6.498;2023-03-23T11:56:34;14.30;99.90
52879;DHT22;38747;53.140;6.498;2023-03-23T11:59:02;14.40;99.90
52879;DHT22;38747;53.140;6.498;2023-03-23T12:21:40;14.00;99.90
52879;DHT22;38747;53.140;6.498;2023-03-23T12:34:40;14.40;99.90
52879;DHT22;38747;53.140;6.498;2023-03-23T12:43:15;14.50;99.90
52879;DHT22;38747;53.140;6.498;2023-03-23T12:46:00;14.60;99.90
52879;DHT22;38747;53.140;6.498;2023-03-23T12:48:39;14.70;99.90
52879;DHT22;38747;53.140;6.498;2023-03-23T12:51:22;14.80;99.90
52879;DHT22;38747;53.140;6.498;2023-03-23T12:53:57;14.80;99.90
52879;DHT22;38747;53.140;6.498;2023-03-23T12:56:29;14.70;99.90
52879;DHT22;38747;53.140;6.498;2023-03-23T12:59:12;14.70;99.90
52879;DHT22;38747;53.140;6.498;2023-03-23T13:01:44;14.60;99.90
52879;DHT22;38747;53.140;6.498;2023-03-23T13:04:25;14.70;99.90
52879;DHT22;38747;53.140;6.498;2023-03-23T13:06:52;14.90;99.90
52879;DHT22;38747;53.140;6.498;2023-03-23T13:09:29;14.80;99.90
52879;DHT22;38747;53.140;6.498;2023-03-23T13:11:58;14.60;99.90
52879;DHT22;38747;53.140;6.498;2023-03-23T13:25:55;14.00;99.90
52879;DHT22;38747;53.140;6.498;2023-03-23T13:31:34;14.10;99.90
52879;DHT22;38747;53.140;6.498;2023-03-23T13:34:06;14.20;99.90
52879;DHT22;38747;53.140;6.498;2023-03-23T13:36:38;14.40;99.90
52879;DHT22;38747;53.140;6.498;2023-03-23T13:39:16;14.50;99.90
52879;DHT22;38747;53.140;6.498;2023-03-23T13:41:48;14.70;99.90
52879;DHT22;38747;53.140;6.498;2023-03-23T13:44:24;14.80;99.90
52879;DHT22;38747;53.140;6.498;2023-03-23T13:47:05;15.00;99.90
52879;DHT22;38747;53.140;6.498;2023-03-23T13:49:32;15.10;99.90
52879;DHT22;38747;53.140;6.498;2023-03-23T13:54:47;15.10;99.90
52879;DHT22;38747;53.140;6.498;2023-03-23T13:57:35;15.10;99.90
52879;DHT22;38747;53.140;6.498;2023-03-23T14:00:27;15.10;99.90
52879;DHT22;38747;53.140;6.498;2023-03-23T14:05:43;15.10;99.90
52879;DHT22;38747;53.140;6.498;2023-03-23T14:08:13;15.10;99.90
52879;DHT22;38747;53.140;6.498;2023-03-23T14:10:48;15.00;99.90
52879;DHT22;38747;53.140;6.498;2023-03-23T14:13:30;14.90;99.90
52879;DHT22;38747;53.140;6.498;2023-03-23T14:18:27;14.70;99.90
52879;DHT22;38747;53.140;6.498;2023-03-23T14:20:55;14.60;99.90
52879;DHT22;38747;53.140;6.498;2023-03-23T14:23:22;14.50;99.90
52879;DHT22;38747;53.140;6.498;2023-03-23T14:26:19;14.40;99.90
52879;DHT22;38747;53.140;6.498;2023-03-23T14:28:49;14.30;99.90
52879;DHT22;38747;53.140;6.498;2023-03-23T14:31:26;14.30;99.90
52879;DHT22;38747;53.140;6.498;2023-03-23T14:33:54;14.30;99.90
52879;DHT22;38747;53.140;6.498;2023-03-23T14:36:29;14.30;99.90
52879;DHT22;38747;53.140;6.498;2023-03-23T14:41:29;14.40;99.90
52879;DHT22;38747;53.140;6.498;2023-03-23T14:43:56;14.40;99.90
52879;DHT22;38747;53.140;6.498;2023-03-23T14:46:22;14.50;99.90
52879;DHT22;38747;53.140;6.498;2023-03-23T14:48:49;14.60;99.90
52879;DHT22;38747;53.140;6.498;2023-03-23T14:51:20;14.50;99.90
52879;DHT22;38747;53.140;6.498;2023-03-23T14:53:46;14.50;99.90
52879;DHT22;38747;53.140;6.498;2023-03-23T14:56:18;14.40;99.90
52879;DHT22;38747;53.140;6.498;2023-03-23T14:58:46;14.40;99.90
52879;DHT22;38747;53.140;6.498;2023-03-23T15:01:19;14.40;99.90
52879;DHT22;38747;53.140;6.498;2023-03-23T15:03:55;14.40;99.90
52879;DHT22;38747;53.140;6.498;2023-03-23T15:06:24;14.30;99.90
52879;DHT22;38747;53.140;6.498;2023-03-23T15:08:53;14.30;99.90
52879;DHT22;38747;53.140;6.498;2023-03-23T15:11:22;14.30;99.90
52879;DHT22;38747;53.140;6.498;2023-03-23T15:13:55;14.30;99.90
52879;DHT22;38747;53.140;6.498;2023-03-23T15:16:28;14.30;99.90
52879;DHT22;38747;53.140;6.498;2023-03-23T15:19:11;14.30;99.90
52879;DHT22;38747;53.140;6.498;2023-03-23T15:21:50;14.20;99.90
52879;DHT22;38747;53.140;6.498;2023-03-23T15:24:24;14.20;99.90
52879;DHT22;38747;53.140;6.498;2023-03-23T15:26:50;14.20;99.90
52879;DHT22;38747;53.140;6.498;2023-03-23T15:29:17;14.20;99.90
52879;DHT22;38747;53.140;6.498;2023-03-23T15:31:48;14.20;99.90
52879;DHT22;38747;53.140;6.498;2023-03-23T15:37:04;14.10;99.90
52879;DHT22;38747;53.140;6.498;2023-03-23T15:39:31;14.10;99.90
52879;DHT22;38747;53.140;6.498;2023-03-23T15:41:58;14.00;99.90
52879;DHT22;38747;53.140;6.498;2023-03-23T15:44:31;14.00;99.90
52879;DHT22;38747;53.140;6.498;2023-03-23T15:47:17;14.00;99.90
52879;DHT22;38747;53.140;6.498;2023-03-23T15:49:46;14.00;99.90
52879;DHT22;38747;53.140;6.498;2023-03-23T15:52:13;14.00;99.90
52879;DHT22;38747;53.140;6.498;2023-03-23T15:54:46;13.90;99.90
52879;DHT22;38747;53.140;6.498;2023-03-23T15:57:12;13.90;99.90
52879;DHT22;38747;53.140;6.498;2023-03-23T15:59:38;13.80;99.90
52879;DHT22;38747;53.140;6.498;2023-03-23T16:02:04;13.80;99.90
52879;DHT22;38747;53.140;6.498;2023-03-23T16:04:29;13.80;99.90
52879;DHT22;38747;53.140;6.498;2023-03-23T16:06:56;13.80;99.90
52879;DHT22;38747;53.140;6.498;2023-03-23T16:09:23;13.70;99.90
52879;DHT22;38747;53.140;6.498;2023-03-23T16:11:49;13.60;99.90
52879;DHT22;38747;53.140;6.498;2023-03-23T16:14:14;13.60;99.90
52879;DHT22;38747;53.140;6.498;2023-03-23T16:16:48;13.50;99.90
52879;DHT22;38747;53.140;6.498;2023-03-23T16:19:15;13.50;99.90
52879;DHT22;38747;53.140;6.498;2023-03-23T16:21:41;13.40;99.90
52879;DHT22;38747;53.140;6.498;2023-03-23T16:24:08;13.40;99.90
52879;DHT22;38747;53.140;6.498;2023-03-23T16:26:34;13.30;99.90
52879;DHT22;38747;53.140;6.498;2023-03-23T16:29:00;13.30;99.90
52879;DHT22;38747;53.140;6.498;2023-03-23T16:31:27;13.30;99.90
52879;DHT22;38747;53.140;6.498;2023-03-23T16:33:54;13.20;99.90
52879;DHT22;38747;53.140;6.498;2023-03-23T16:36:19;13.30;99.90
52879;DHT22;38747;53.140;6.498;2023-03-23T16:38:45;13.20;99.90
52879;DHT22;38747;53.140;6.498;2023-03-23T16:41:11;13.30;99.90
52879;DHT22;38747;53.140;6.498;2023-03-23T16:43:36;13.30;99.90
52879;DHT22;38747;53.140;6.498;2023-03-23T16:46:02;13.20;99.90
52879;DHT22;38747;53.140;6.498;2023-03-23T16:48:28;13.10;99.90
52879;DHT22;38747;53.140;6.498;2023-03-23T16:50:54;13.00;99.90
52879;DHT22;38747;53.140;6.498;2023-03-23T16:53:20;13.00;99.90
52879;DHT22;38747;53.140;6.498;2023-03-23T16:55:46;13.00;99.90
52879;DHT22;38747;53.140;6.498;2023-03-23T16:58:14;13.00;99.90
52879;DHT22;38747;53.140;6.498;2023-03-23T17:00:41;13.00;99.90
52879;DHT22;38747;53.140;6.498;2023-03-23T17:03:07;12.90;99.90
52879;DHT22;38747;53.140;6.498;2023-03-23T17:05:34;12.80;99.90
52879;DHT22;38747;53.140;6.498;2023-03-23T17:08:00;12.80;99.90
52879;DHT22;38747;53.140;6.498;2023-03-23T17:10:27;12.70;99.90
52879;DHT22;38747;53.140;6.498;2023-03-23T17:12:54;12.70;99.90
52879;DHT22;38747;53.140;6.498;2023-03-23T17:15:20;12.70;99.90
52879;DHT22;38747;53.140;6.498;2023-03-23T17:17:46;12.70;99.90
52879;DHT22;38747;53.140;6.498;2023-03-23T17:20:12;12.60;99.90
52879;DHT22;38747;53.140;6.498;2023-03-23T17:22:39;12.60;99.90
52879;DHT22;38747;53.140;6.498;2023-03-23T17:25:06;12.50;99.90
52879;DHT22;38747;53.140;6.498;2023-03-23T17:27:33;12.40;99.90
52879;DHT22;38747;53.140;6.498;2023-03-23T17:29:59;12.40;99.90
52879;DHT22;38747;53.140;6.498;2023-03-23T17:32:25;12.30;99.90
52879;DHT22;38747;53.140;6.498;2023-03-23T17:34:51;12.30;99.90
52879;DHT22;38747;53.140;6.498;2023-03-23T17:37:18;12.30;99.90
52879;DHT22;38747;53.140;6.498;2023-03-23T17:39:44;12.20;99.90
52879;DHT22;38747;53.140;6.498;2023-03-23T17:42:10;12.10;99.90